createdAt,value
2022-11-03T00:01:45.264Z,70.45
2022-11-03T00:04:13.850Z,66.43
2022-11-03T00:06:41.922Z,68.15
2022-11-03T00:09:10.986Z,63.92
2022-11-03T00:11:39.563Z,61.95
2022-11-03T00:14:07.091Z,64.50
2022-11-03T00:16:34.000Z,61.90
2022-11-03T00:19:00.881Z,61.60
2022-11-03T00:21:28.126Z,63.33
2022-11-03T00:23:55.155Z,65.22
2022-11-03T00:26:23.170Z,62.67
2022-11-03T00:28:52.105Z,64.35
2022-11-03T00:31:24.683Z,60.92
2022-11-03T00:33:52.089Z,62.70
2022-11-03T00:36:24.230Z,64.72
2022-11-03T00:38:51.351Z,64.15
2022-11-03T00:41:20.694Z,66.90
2022-11-03T00:43:48.640Z,69.07
2022-11-03T00:46:15.910Z,65.13
2022-11-03T00:48:42.938Z,68.93
2022-11-03T00:51:19.817Z,70.65
2022-11-03T00:53:50.645Z,70.15
2022-11-03T00:56:20.066Z,69.72
2022-11-03T00:58:47.343Z,71.15
2022-11-03T01:01:19.602Z,71.10
2022-11-03T01:04:07.713Z,71.45
2022-11-03T01:06:51.163Z,66.97
2022-11-03T01:09:18.116Z,66.35
2022-11-03T01:12:12.262Z,64.65
2022-11-03T01:14:42.612Z,59.50
2022-11-03T01:17:17.070Z,59.38
2022-11-03T01:19:44.267Z,59.55
2022-11-03T01:22:11.801Z,67.05
2022-11-03T01:24:41.450Z,55.58
2022-11-03T01:27:17.337Z,59.78
2022-11-03T01:29:44.475Z,51.97
2022-11-03T01:32:12.167Z,58.13
2022-11-03T01:34:39.325Z,60.50
2022-11-03T01:37:06.391Z,59.28
2022-11-03T01:39:33.150Z,60.45
2022-11-03T01:42:00.092Z,57.38
2022-11-03T01:44:36.316Z,56.08
2022-11-03T01:47:15.091Z,54.72
2022-11-03T01:49:53.868Z,61.42
2022-11-03T01:52:43.033Z,58.00
2022-11-03T01:55:18.181Z,57.30
2022-11-03T01:57:47.231Z,61.45
2022-11-03T02:00:14.361Z,63.35
2022-11-03T02:02:42.849Z,61.55
2022-11-03T02:05:12.833Z,55.47
2022-11-03T02:07:49.885Z,57.95
2022-11-03T02:10:17.902Z,57.42
2022-11-03T02:12:44.802Z,62.75
2022-11-03T02:15:14.658Z,61.80
2022-11-03T02:17:43.579Z,56.40
2022-11-03T02:20:14.082Z,52.65
2022-11-03T02:22:40.711Z,56.40
2022-11-03T02:25:26.088Z,61.33
2022-11-03T02:27:52.800Z,61.05
2022-11-03T02:30:19.542Z,58.83
2022-11-03T02:33:12.128Z,61.22
2022-11-03T02:36:00.046Z,56.72
2022-11-03T02:38:30.752Z,64.75
2022-11-03T02:41:01.114Z,56.95
2022-11-03T02:43:29.137Z,57.50
2022-11-03T02:45:56.196Z,61.22
2022-11-03T02:48:22.840Z,59.88
2022-11-03T02:50:49.610Z,53.92
2022-11-03T02:53:16.912Z,59.10
2022-11-03T02:55:51.846Z,62.15
2022-11-03T02:58:53.637Z,60.80
2022-11-03T03:01:32.693Z,58.50
2022-11-03T03:04:03.922Z,60.40
2022-11-03T03:06:42.004Z,59.20
2022-11-03T03:09:13.386Z,66.53
2022-11-03T03:11:43.499Z,58.28
2022-11-03T03:14:15.661Z,60.03
2022-11-03T03:16:53.221Z,64.22
2022-11-03T03:19:29.066Z,68.88
2022-11-03T03:21:59.319Z,73.65
2022-11-03T03:24:49.215Z,84.22
2022-11-03T03:27:18.471Z,74.93
2022-11-03T03:29:53.559Z,74.10
2022-11-03T03:32:24.294Z,73.50
2022-11-03T03:34:53.348Z,74.07
2022-11-03T03:37:23.088Z,79.97
2022-11-03T03:39:54.479Z,75.55
2022-11-03T03:42:24.238Z,78.47
2022-11-03T03:44:52.768Z,80.65
2022-11-03T03:47:29.105Z,85.57
2022-11-03T03:49:56.817Z,83.75
2022-11-03T03:52:24.316Z,83.15
2022-11-03T03:54:51.977Z,87.70
2022-11-03T03:57:24.190Z,87.00
2022-11-03T03:59:50.997Z,84.38
2022-11-03T04:02:18.103Z,87.53
2022-11-03T04:04:44.892Z,90.82
2022-11-03T04:07:30.578Z,88.00
2022-11-03T04:09:57.305Z,86.75
2022-11-03T04:12:42.343Z,95.57
2022-11-03T04:15:33.496Z,98.63
2022-11-03T04:18:19.065Z,94.10
2022-11-03T04:21:04.391Z,92.80
2022-11-03T04:23:31.355Z,84.20
2022-11-03T04:25:59.114Z,92.60
2022-11-03T04:28:27.236Z,86.05
2022-11-03T04:30:58.981Z,91.45
2022-11-03T04:33:26.602Z,90.00
2022-11-03T04:35:57.697Z,98.97
2022-11-03T04:38:27.286Z,96.60
2022-11-03T04:40:58.812Z,98.60
2022-11-03T04:43:36.622Z,111.40
2022-11-03T04:46:03.588Z,104.03
2022-11-03T04:48:30.607Z,116.00
2022-11-03T04:51:02.606Z,119.80
2022-11-03T04:53:33.085Z,120.93
2022-11-03T04:56:04.396Z,104.55
2022-11-03T04:58:35.811Z,102.03
2022-11-03T05:01:04.519Z,101.55
2022-11-03T05:03:36.301Z,93.70
2022-11-03T05:06:30.057Z,100.40
2022-11-03T05:09:05.154Z,94.70
2022-11-03T05:11:38.091Z,91.78
2022-11-03T05:14:38.832Z,84.93
2022-11-03T05:17:26.068Z,89.07
2022-11-03T05:20:06.444Z,80.68
2022-11-03T05:22:37.900Z,83.43
2022-11-03T05:25:50.626Z,84.95
2022-11-03T05:28:28.314Z,85.88
2022-11-03T05:30:56.399Z,89.32
2022-11-03T05:33:30.624Z,88.10
2022-11-03T05:36:00.791Z,96.13
2022-11-03T05:38:31.378Z,86.70
2022-11-03T05:40:59.431Z,86.32
2022-11-03T05:43:28.049Z,79.85
2022-11-03T05:45:58.443Z,82.97
2022-11-03T05:48:34.809Z,76.78
2022-11-03T05:51:10.530Z,68.00
2022-11-03T05:53:43.379Z,65.10
2022-11-03T05:56:18.805Z,67.80
2022-11-03T05:58:46.826Z,63.35
2022-11-03T06:01:23.580Z,61.35
2022-11-03T06:03:50.684Z,60.85
2022-11-03T06:06:20.382Z,56.53
2022-11-03T06:08:47.762Z,60.10
2022-11-03T06:11:47.112Z,56.70
2022-11-03T06:14:24.398Z,58.80
2022-11-03T06:17:02.268Z,57.92
2022-11-03T06:19:30.195Z,57.53
2022-11-03T06:22:14.274Z,60.60
2022-11-03T06:24:41.532Z,63.50
2022-11-03T06:27:22.356Z,69.00
2022-11-03T06:30:11.827Z,70.45
2022-11-03T06:32:38.552Z,70.07
2022-11-03T06:35:11.620Z,75.13
2022-11-03T06:37:38.402Z,75.20
2022-11-03T06:40:10.935Z,74.22
2022-11-03T06:42:40.018Z,72.50
2022-11-03T06:45:20.563Z,75.30
2022-11-03T06:47:47.385Z,74.93
2022-11-03T06:50:27.448Z,81.50
2022-11-03T06:52:56.024Z,80.95
2022-11-03T06:55:33.059Z,90.22
2022-11-03T06:58:12.339Z,90.18
2022-11-03T07:00:45.914Z,80.97
2022-11-03T07:03:24.861Z,72.28
2022-11-03T07:08:23.448Z,65.53
2022-11-03T07:11:15.092Z,65.43
2022-11-03T07:13:42.454Z,73.68
2022-11-03T07:16:22.080Z,77.60
2022-11-03T07:18:48.785Z,66.25
2022-11-03T07:21:54.503Z,62.10
2022-11-03T07:24:25.515Z,59.00
2022-11-03T07:27:15.212Z,63.03
2022-11-03T07:29:44.025Z,53.58
2022-11-03T07:32:20.745Z,54.35
2022-11-03T07:34:49.151Z,51.78
2022-11-03T07:37:20.889Z,57.95
2022-11-03T07:39:49.032Z,69.32
2022-11-03T07:42:21.853Z,63.42
2022-11-03T07:44:49.811Z,69.68
2022-11-03T07:47:20.049Z,70.57
2022-11-03T07:49:47.612Z,63.55
2022-11-03T07:52:22.590Z,64.32
2022-11-03T07:54:51.110Z,60.90
2022-11-03T07:57:26.231Z,74.30
2022-11-03T07:59:58.337Z,70.97
2022-11-03T08:02:42.511Z,72.82
2022-11-03T08:05:09.277Z,80.45
2022-11-03T08:07:36.632Z,78.82
2022-11-03T08:10:04.037Z,85.60
2022-11-03T08:12:30.723Z,88.78
2022-11-03T08:14:57.386Z,82.88
2022-11-03T08:17:24.313Z,91.28
2022-11-03T08:19:50.997Z,92.88
2022-11-03T08:22:17.797Z,79.03
2022-11-03T08:24:44.566Z,74.53
2022-11-03T08:27:11.230Z,74.00
2022-11-03T08:29:37.962Z,84.57
2022-11-03T08:32:05.019Z,89.13
2022-11-03T08:34:31.688Z,75.45
2022-11-03T08:36:58.333Z,75.68
2022-11-03T08:39:25.081Z,74.45
2022-11-03T08:41:51.756Z,71.72
2022-11-03T08:44:18.450Z,71.80
2022-11-03T08:46:45.142Z,65.07
2022-11-03T08:49:11.800Z,58.85
2022-11-03T08:51:43.972Z,57.78
2022-11-03T08:54:11.179Z,59.70
2022-11-03T08:56:37.826Z,47.35
2022-11-03T08:59:04.537Z,53.75
2022-11-03T09:01:31.318Z,55.35
2022-11-03T09:03:58.301Z,61.20
2022-11-03T09:06:25.176Z,53.55
2022-11-03T09:11:38.743Z,51.22
2022-11-03T09:14:05.467Z,47.20
2022-11-03T09:16:32.249Z,49.70
2022-11-03T09:18:58.919Z,51.22
2022-11-03T09:21:25.617Z,47.40
2022-11-03T09:23:52.324Z,51.22
2022-11-03T09:26:19.116Z,44.67
2022-11-03T09:28:46.127Z,44.85
2022-11-03T09:31:12.945Z,44.45
2022-11-03T09:33:39.648Z,43.42
2022-11-03T09:36:06.944Z,47.53
2022-11-03T09:38:33.686Z,48.22
2022-11-03T09:41:01.134Z,43.05
2022-11-03T09:43:28.241Z,49.60
2022-11-03T09:45:54.947Z,46.53
2022-11-03T09:48:21.726Z,50.15
2022-11-03T09:50:52.673Z,56.28
2022-11-03T09:53:21.169Z,55.72
2022-11-03T09:55:47.823Z,57.17
2022-11-03T09:58:16.759Z,48.28
2022-11-03T10:00:44.322Z,48.60
2022-11-03T10:03:20.807Z,41.55
2022-11-03T10:05:48.250Z,47.63
2022-11-03T10:08:37.388Z,40.67
2022-11-03T10:11:06.452Z,37.40
2022-11-03T10:13:47.746Z,34.15
2022-11-03T10:16:23.171Z,36.58
2022-11-03T10:18:50.186Z,35.38
2022-11-03T10:21:20.544Z,33.15
2022-11-03T10:23:47.316Z,29.15
2022-11-03T10:26:18.644Z,38.47
2022-11-03T10:28:59.232Z,32.03
2022-11-03T10:31:42.051Z,33.80
2022-11-03T10:34:37.560Z,37.63
2022-11-03T10:37:17.148Z,34.70
2022-11-03T10:39:45.343Z,30.80
2022-11-03T10:42:20.443Z,31.50
2022-11-03T10:44:47.659Z,29.38
2022-11-03T10:47:24.657Z,36.78
2022-11-03T10:49:51.584Z,29.30
2022-11-03T10:52:24.443Z,26.92
2022-11-03T10:54:54.083Z,26.27
2022-11-03T10:57:22.598Z,31.23
2022-11-03T10:59:51.380Z,27.35
2022-11-03T11:02:26.760Z,30.35
2022-11-03T11:04:59.320Z,35.20
2022-11-03T11:07:41.725Z,28.95
2022-11-03T11:10:21.464Z,31.80
2022-11-03T11:13:25.635Z,31.88
2022-11-03T11:16:00.335Z,36.05
2022-11-03T11:18:30.692Z,35.88
2022-11-03T11:21:25.071Z,35.90
2022-11-03T11:23:53.054Z,34.08
2022-11-03T11:26:25.743Z,33.95
2022-11-03T11:29:11.500Z,34.95
2022-11-03T11:31:42.204Z,36.15
2022-11-03T11:34:18.427Z,34.13
2022-11-03T11:37:03.783Z,36.47
2022-11-03T11:39:31.215Z,34.15
2022-11-03T11:42:17.723Z,31.92
2022-11-03T11:44:47.343Z,34.92
2022-11-03T11:47:27.776Z,36.10
2022-11-03T11:50:06.797Z,31.35
2022-11-03T11:52:36.711Z,30.10
2022-11-03T11:55:04.600Z,32.42
2022-11-03T11:57:34.992Z,33.72
2022-11-03T12:00:01.767Z,26.95
2022-11-03T12:02:31.100Z,27.50
2022-11-03T12:05:04.856Z,31.42
2022-11-03T12:07:36.610Z,34.35
2022-11-03T12:10:10.159Z,32.00
2022-11-03T12:12:36.910Z,34.80
2022-11-03T12:15:03.861Z,32.53
2022-11-03T12:17:31.742Z,28.08
2022-11-03T12:19:58.501Z,27.70
2022-11-03T12:22:26.062Z,25.52
2022-11-03T12:24:55.183Z,28.38
2022-11-03T12:27:24.991Z,25.75
2022-11-03T12:29:52.809Z,26.30
2022-11-03T12:32:32.647Z,25.83
2022-11-03T12:35:00.213Z,25.05
2022-11-03T12:37:27.077Z,30.10
2022-11-03T12:39:53.734Z,33.33
2022-11-03T12:42:21.049Z,28.15
2022-11-03T12:44:47.920Z,24.90
2022-11-03T12:47:14.566Z,23.92
2022-11-03T12:49:41.246Z,25.83
2022-11-03T12:52:08.730Z,25.33
2022-11-03T12:54:35.643Z,28.02
2022-11-03T12:57:02.611Z,31.45
2022-11-03T12:59:29.606Z,29.52
2022-11-03T13:01:56.530Z,30.10
2022-11-03T13:04:23.361Z,28.65
2022-11-03T13:06:50.431Z,32.85
2022-11-03T13:09:17.132Z,31.33
2022-11-03T13:12:03.012Z,30.85
2022-11-03T13:16:56.374Z,28.90
2022-11-03T13:19:23.070Z,29.73
2022-11-03T13:21:49.758Z,27.90
2022-11-03T13:24:16.467Z,28.38
2022-11-03T13:26:43.322Z,31.88
2022-11-03T13:29:10.155Z,31.88
2022-11-03T13:31:36.978Z,28.38
2022-11-03T13:34:03.959Z,31.73
2022-11-03T13:36:30.770Z,34.15
2022-11-03T13:38:57.576Z,31.63
2022-11-03T13:41:24.324Z,29.73
2022-11-03T13:43:51.053Z,27.63
2022-11-03T13:46:17.738Z,31.45
2022-11-03T13:51:31.067Z,29.73
2022-11-03T13:59:31.461Z,30.40
2022-11-03T14:04:45.381Z,35.53
2022-11-03T14:07:12.108Z,36.22
2022-11-03T14:09:39.022Z,39.35
2022-11-03T14:12:24.666Z,36.80
2022-11-03T14:14:51.396Z,34.97
2022-11-03T14:17:18.063Z,35.67
2022-11-03T14:19:48.867Z,35.22
2022-11-03T14:22:19.243Z,39.88
2022-11-03T14:24:46.053Z,36.30
2022-11-03T14:27:13.118Z,37.35
2022-11-03T14:29:39.834Z,37.63
2022-11-03T14:32:06.608Z,34.85
2022-11-03T14:34:33.529Z,39.33
2022-11-03T14:37:00.311Z,32.88
2022-11-03T14:39:27.480Z,42.95
2022-11-03T14:42:03.549Z,39.97
2022-11-03T14:44:36.617Z,39.78
2022-11-03T14:47:05.503Z,37.58
2022-11-03T14:49:33.434Z,37.95
2022-11-03T14:52:04.328Z,39.65
2022-11-03T14:54:31.868Z,38.85
2022-11-03T14:56:58.925Z,36.55
2022-11-03T14:59:27.035Z,43.28
2022-11-03T15:01:54.667Z,37.45
2022-11-03T15:04:23.071Z,35.03
2022-11-03T15:06:50.402Z,38.95
2022-11-03T15:09:18.156Z,40.50
2022-11-03T15:11:45.371Z,41.42
2022-11-03T15:14:12.872Z,42.05
2022-11-03T15:16:40.248Z,43.35
2022-11-03T15:19:07.646Z,36.10
2022-11-03T15:21:35.636Z,43.67
2022-11-03T15:26:49.688Z,42.83
2022-11-03T15:29:16.475Z,43.33
2022-11-03T15:31:47.596Z,39.65
2022-11-03T15:34:15.637Z,41.60
2022-11-03T15:36:42.406Z,42.13
2022-11-03T15:39:09.496Z,44.83
2022-11-03T15:41:36.271Z,44.47
2022-11-03T15:44:02.945Z,42.13
2022-11-03T15:46:29.597Z,43.63
2022-11-03T15:48:58.021Z,46.38
2022-11-03T15:51:25.190Z,45.53
2022-11-03T15:53:57.812Z,44.90
2022-11-03T15:56:25.944Z,51.47
2022-11-03T15:58:52.672Z,44.88
2022-11-03T16:01:19.552Z,44.97
2022-11-03T16:03:46.375Z,42.72
2022-11-03T16:06:13.086Z,47.78
2022-11-03T16:08:39.771Z,52.47
2022-11-03T16:11:06.869Z,55.47
2022-11-03T16:13:33.556Z,47.35
2022-11-03T16:16:00.310Z,53.47
2022-11-03T16:18:27.328Z,50.03
2022-11-03T16:20:54.028Z,50.38
2022-11-03T16:23:20.736Z,54.03
2022-11-03T16:25:47.890Z,50.85
2022-11-03T16:28:14.543Z,55.08
2022-11-03T16:30:41.259Z,50.38
2022-11-03T16:33:09.033Z,54.20
2022-11-03T16:35:35.667Z,56.67
2022-11-03T16:38:02.385Z,54.88
2022-11-03T16:40:29.262Z,55.50
2022-11-03T16:42:56.002Z,61.65
2022-11-03T16:45:26.494Z,59.30
2022-11-03T16:47:53.774Z,57.80
2022-11-03T16:50:21.114Z,58.38
2022-11-03T16:52:49.263Z,63.05
2022-11-03T16:55:17.675Z,57.47
2022-11-03T16:57:45.502Z,64.07
2022-11-03T17:00:15.371Z,61.28
2022-11-03T17:02:42.831Z,63.33
2022-11-03T17:05:10.502Z,60.17
2022-11-03T17:07:37.393Z,64.25
2022-11-03T17:10:08.519Z,64.03
2022-11-03T17:12:35.278Z,63.35
2022-11-03T17:15:02.008Z,67.93
2022-11-03T17:17:28.777Z,65.63
2022-11-03T17:19:55.567Z,69.57
2022-11-03T17:22:22.540Z,71.78
2022-11-03T17:24:49.958Z,66.07
2022-11-03T17:27:33.831Z,68.20
2022-11-03T17:30:06.840Z,72.13
2022-11-03T17:32:40.150Z,75.63
2022-11-03T17:35:21.885Z,68.75
2022-11-03T17:37:49.846Z,72.22
2022-11-03T17:40:26.470Z,71.93
2022-11-03T17:42:53.294Z,64.80
2022-11-03T17:45:21.702Z,69.22
2022-11-03T17:47:51.516Z,73.13
2022-11-03T17:50:23.507Z,62.38
2022-11-03T17:52:51.453Z,64.85
2022-11-03T17:55:29.230Z,58.15
2022-11-03T17:57:58.813Z,71.15
2022-11-03T18:00:26.198Z,61.20
2022-11-03T18:02:55.139Z,67.10
2022-11-03T18:05:28.725Z,72.20
2022-11-03T18:07:57.607Z,64.20
2022-11-03T18:10:28.549Z,62.33
2022-11-03T18:13:18.349Z,58.17
2022-11-03T18:15:51.250Z,58.85
2022-11-03T18:18:30.331Z,58.83
2022-11-03T18:20:57.696Z,63.45
2022-11-03T18:23:33.899Z,61.90
2022-11-03T18:26:12.925Z,61.13
2022-11-03T18:28:39.589Z,58.33
2022-11-03T18:31:14.529Z,57.50
2022-11-03T18:33:41.237Z,60.22
2022-11-03T18:36:09.910Z,61.65
2022-11-03T18:38:39.816Z,58.97
2022-11-03T18:41:32.944Z,66.65
2022-11-03T18:43:59.629Z,61.17
2022-11-03T18:46:26.274Z,61.65
2022-11-03T18:48:53.014Z,61.78
2022-11-03T18:51:19.685Z,63.47
2022-11-03T18:53:46.686Z,59.72
2022-11-03T18:56:15.394Z,64.88
2022-11-03T18:58:42.250Z,62.33
2022-11-03T19:01:21.458Z,66.97
2022-11-03T19:03:48.451Z,68.45
2022-11-03T19:06:15.809Z,65.70
2022-11-03T19:08:44.940Z,74.18
2022-11-03T19:11:12.708Z,67.55
2022-11-03T19:13:45.443Z,67.95
2022-11-03T19:16:19.882Z,64.32
2022-11-03T19:18:47.167Z,70.13
2022-11-03T19:21:18.930Z,69.30
2022-11-03T19:23:48.041Z,69.13
2022-11-03T19:26:31.133Z,67.38
2022-11-03T19:29:03.555Z,71.78
2022-11-03T19:31:42.644Z,72.57
2022-11-03T19:34:15.764Z,69.65
2022-11-03T19:36:43.608Z,75.55
2022-11-03T19:39:33.209Z,74.65
2022-11-03T19:42:21.344Z,70.93
2022-11-03T19:44:50.396Z,73.05
2022-11-03T19:47:18.267Z,69.28
2022-11-03T19:49:46.595Z,73.28
2022-11-03T19:52:17.933Z,70.63
2022-11-03T19:54:47.891Z,72.53
2022-11-03T19:57:16.788Z,67.10
2022-11-03T19:59:44.676Z,74.90
2022-11-03T20:02:13.332Z,71.93
2022-11-03T20:04:46.704Z,75.47
2022-11-03T20:07:15.535Z,71.78
2022-11-03T20:09:42.788Z,71.28
2022-11-03T20:12:13.527Z,70.40
2022-11-03T20:14:40.248Z,68.45
2022-11-03T20:17:16.575Z,74.03
2022-11-03T20:19:44.253Z,72.35
2022-11-03T20:22:18.188Z,71.65
2022-11-03T20:24:46.368Z,66.95
2022-11-03T20:27:13.921Z,65.53
2022-11-03T20:29:40.849Z,68.60
2022-11-03T20:32:12.561Z,60.83
2022-11-03T20:34:40.084Z,65.07
2022-11-03T20:37:18.728Z,66.65
2022-11-03T20:39:46.648Z,65.60
2022-11-03T20:42:23.499Z,67.28
2022-11-03T20:44:50.922Z,66.53
2022-11-03T20:47:18.674Z,66.72
2022-11-03T20:49:46.137Z,66.70
2022-11-03T20:52:13.857Z,68.40
2022-11-03T20:54:43.149Z,68.30
2022-11-03T20:57:12.832Z,77.20
2022-11-03T20:59:39.823Z,71.82
2022-11-03T21:02:12.029Z,72.68
2022-11-03T21:04:38.984Z,67.97
2022-11-03T21:07:05.676Z,67.97
2022-11-03T21:09:32.392Z,70.57
2022-11-03T21:11:59.337Z,72.05
2022-11-03T21:14:30.456Z,72.95
2022-11-03T21:17:16.114Z,65.25
2022-11-03T21:20:09.404Z,68.25
2022-11-03T21:22:52.289Z,66.60
2022-11-03T21:25:21.918Z,65.43
2022-11-03T21:27:49.707Z,68.40
2022-11-03T21:30:17.267Z,59.45
2022-11-03T21:32:44.093Z,64.28
2022-11-03T21:35:16.289Z,58.20
2022-11-03T21:37:43.211Z,64.10
2022-11-03T21:40:10.752Z,60.95
2022-11-03T21:42:55.933Z,58.05
2022-11-03T21:45:22.593Z,54.67
2022-11-03T21:48:13.151Z,57.20
2022-11-03T21:50:40.693Z,54.47
2022-11-03T21:53:07.809Z,49.47
2022-11-03T21:55:35.419Z,53.10
2022-11-03T21:58:02.922Z,48.65
2022-11-03T22:00:31.970Z,50.97
2022-11-03T22:02:59.834Z,45.95
2022-11-03T22:05:26.780Z,46.30
2022-11-03T22:07:53.735Z,46.45
2022-11-03T22:10:20.773Z,51.08
2022-11-03T22:12:47.674Z,47.75
2022-11-03T22:15:32.894Z,53.58
2022-11-03T22:18:06.376Z,47.60
2022-11-03T22:20:52.459Z,44.67
2022-11-03T22:23:37.790Z,41.33
2022-11-03T22:26:23.333Z,40.97
2022-11-03T22:29:09.926Z,40.65
2022-11-03T22:31:42.951Z,45.95
2022-11-03T22:34:28.130Z,45.55
2022-11-03T22:36:54.998Z,40.63
2022-11-03T22:39:40.083Z,41.47
2022-11-03T22:42:25.679Z,43.17
2022-11-03T22:45:11.055Z,40.40
2022-11-03T22:47:37.989Z,48.35
2022-11-03T22:50:05.028Z,46.53
2022-11-03T22:52:31.673Z,43.50
2022-11-03T22:54:58.408Z,41.45
2022-11-03T22:57:25.112Z,41.47
2022-11-03T22:59:51.876Z,44.38
2022-11-03T23:02:19.010Z,39.97
2022-11-03T23:04:46.738Z,45.80
2022-11-03T23:07:13.417Z,44.83
2022-11-03T23:09:40.190Z,45.22
2022-11-03T23:12:06.927Z,44.63
2022-11-03T23:14:52.189Z,38.45
2022-11-03T23:17:18.873Z,40.47
2022-11-03T23:20:04.056Z,34.22
2022-11-03T23:22:30.723Z,35.57
2022-11-03T23:25:00.138Z,30.55
2022-11-03T23:27:27.188Z,26.63
2022-11-03T23:29:53.859Z,28.70
2022-11-03T23:32:20.658Z,26.98
2022-11-03T23:34:47.395Z,27.05
2022-11-03T23:37:14.334Z,25.90
2022-11-03T23:39:40.962Z,27.90
2022-11-03T23:42:07.663Z,25.58
2022-11-03T23:44:53.085Z,26.05
2022-11-03T23:47:38.388Z,19.50
2022-11-03T23:50:05.548Z,19.27
2022-11-03T23:52:32.270Z,23.50
2022-11-03T23:54:58.951Z,20.92
2022-11-03T23:57:44.231Z,28.38
